Airfield :







YOU CAN JOIN US ON...

 
LOGIN :

Register | Disclaimer

   EN    FR    IT 

 









Legend :    VFR   Marginal VFR   IFR   Intensive IFR   Very Intensive IFR
Visi :
Ceiling :
>= 8 km
>= 3000ft
5 to 8 km
1000 to 3000 ft
1500m to 5 km
500 to 1000 ft
800 to 1500m
200 to 500 ft
< 800m
< 200 ft
Symbols :   Thunderstorms  Fog  Heavy snow  Heavy precipitations  Wind > 20 kt






- Airport Elevation : 21 ft
- IATA code : YVM


CYVM - Qikiqtarjuac

CURRENT METAR :
  • 311700Z 23003KT 15SM FEW013 FEW025 BKN065 M00/M04 A2999 RMK SF1SC1SC4 SF TR S00 AFT 14UTC/30/SNW CVR/MCH LOOSE/LAST STTFD OBS/NXT 011000Z SLP158

EXPIRED METARs :
  • 311600Z VRB02KT 15SM FEW025 BKN065 M01/M04 A2999 RMK SC2SC4 SLP157
  • 311500Z VRB02KT 15SM FEW025 BKN065 M01/M05 A2998 RMK SC2SC4 SLP154

TAF TAF CYVM
Valid from the 31 at 13:00 until the 01 at 01:00 UTC


311238Z 3113/0101 18007KT P6SM SCT020 OVC070
TEMPO 3113/0101 3SM -SN BR BKN020 OVC070 RMK FCST BASED ON AUTO OBS. NXT FCST BY 311900Z
CZEG FIR / North America



MET'MAP, your aeronautical weather chart ! - Copyright ORBIFLY December 2007 - Disclaimer

ORBIFLY MET'MAP TEAM :

Programming & Development : Alexandra Zaïnal
Concept & original design : Baudouin d'Aumeries
Assistance for programming : Marc-Olivier Méhu
Technical & hardware support : Manuel Goepfert

Contact : metmap@orbifly.com




SOURCES & CREDITS :

   NOAA